sensor_id;sensor_type;location;lat;lon;timestamp;P1;durP1;ratioP1;P2;durP2;ratioP2
11431;SDS011;5772;50.940;6.782;2022-08-20T00:01:49;82.67;;;79.10;;
11431;SDS011;5772;50.940;6.782;2022-08-20T00:04:15;84.23;;;80.53;;
11431;SDS011;5772;50.940;6.782;2022-08-20T00:06:42;87.20;;;83.60;;
11431;SDS011;5772;50.940;6.782;2022-08-20T00:09:07;95.47;;;91.53;;
11431;SDS011;5772;50.940;6.782;2022-08-20T00:11:33;90.63;;;86.83;;
11431;SDS011;5772;50.940;6.782;2022-08-20T00:13:59;102.53;;;98.43;;
11431;SDS011;5772;50.940;6.782;2022-08-20T00:16:27;99.53;;;95.40;;
11431;SDS011;5772;50.940;6.782;2022-08-20T00:18:54;105.60;;;101.33;;
11431;SDS011;5772;50.940;6.782;2022-08-20T00:21:20;103.33;;;99.13;;
11431;SDS011;5772;50.940;6.782;2022-08-20T00:23:48;122.27;;;117.27;;
11431;SDS011;5772;50.940;6.782;2022-08-20T00:26:15;97.40;;;93.37;;
11431;SDS011;5772;50.940;6.782;2022-08-20T00:28:41;95.67;;;91.80;;
11431;SDS011;5772;50.940;6.782;2022-08-20T00:31:07;102.03;;;98.00;;
11431;SDS011;5772;50.940;6.782;2022-08-20T00:33:34;97.97;;;94.07;;
11431;SDS011;5772;50.940;6.782;2022-08-20T00:36:00;91.07;;;87.40;;
11431;SDS011;5772;50.940;6.782;2022-08-20T00:38:25;92.70;;;89.00;;
11431;SDS011;5772;50.940;6.782;2022-08-20T00:40:53;95.90;;;91.87;;
11431;SDS011;5772;50.940;6.782;2022-08-20T00:43:29;108.80;;;104.43;;
11431;SDS011;5772;50.940;6.782;2022-08-20T00:45:58;118.43;;;113.73;;
11431;SDS011;5772;50.940;6.782;2022-08-20T00:48:24;126.63;;;121.63;;
11431;SDS011;5772;50.940;6.782;2022-08-20T00:50:52;115.33;;;110.60;;
11431;SDS011;5772;50.940;6.782;2022-08-20T00:53:18;120.30;;;115.50;;
11431;SDS011;5772;50.940;6.782;2022-08-20T00:55:44;107.57;;;103.23;;
11431;SDS011;5772;50.940;6.782;2022-08-20T00:58:11;97.53;;;93.60;;
11431;SDS011;5772;50.940;6.782;2022-08-20T01:00:37;92.17;;;88.40;;
11431;SDS011;5772;50.940;6.782;2022-08-20T01:03:04;126.37;;;121.17;;
11431;SDS011;5772;50.940;6.782;2022-08-20T01:05:30;123.83;;;118.87;;
11431;SDS011;5772;50.940;6.782;2022-08-20T01:07:56;94.67;;;90.67;;
11431;SDS011;5772;50.940;6.782;2022-08-20T01:10:23;105.67;;;101.33;;
11431;SDS011;5772;50.940;6.782;2022-08-20T01:12:50;110.93;;;106.50;;
11431;SDS011;5772;50.940;6.782;2022-08-20T01:15:19;111.60;;;107.10;;
11431;SDS011;5772;50.940;6.782;2022-08-20T01:17:48;173.53;;;166.43;;
11431;SDS011;5772;50.940;6.782;2022-08-20T01:20:15;136.80;;;131.27;;
11431;SDS011;5772;50.940;6.782;2022-08-20T01:22:45;153.17;;;147.20;;
11431;SDS011;5772;50.940;6.782;2022-08-20T01:25:18;157.67;;;151.50;;
11431;SDS011;5772;50.940;6.782;2022-08-20T01:27:48;151.60;;;145.60;;
11431;SDS011;5772;50.940;6.782;2022-08-20T01:30:14;145.27;;;139.57;;
11431;SDS011;5772;50.940;6.782;2022-08-20T01:32:39;168.97;;;162.40;;
11431;SDS011;5772;50.940;6.782;2022-08-20T01:35:05;154.57;;;148.53;;
11431;SDS011;5772;50.940;6.782;2022-08-20T01:37:32;153.47;;;146.97;;
11431;SDS011;5772;50.940;6.782;2022-08-20T01:39:57;157.70;;;151.33;;
11431;SDS011;5772;50.940;6.782;2022-08-20T01:42:24;158.93;;;152.67;;
11431;SDS011;5772;50.940;6.782;2022-08-20T01:44:53;162.47;;;156.00;;
11431;SDS011;5772;50.940;6.782;2022-08-20T01:47:20;177.03;;;169.93;;
11431;SDS011;5772;50.940;6.782;2022-08-20T01:49:48;170.33;;;163.63;;
11431;SDS011;5772;50.940;6.782;2022-08-20T01:52:16;153.10;;;147.07;;
11431;SDS011;5772;50.940;6.782;2022-08-20T01:54:46;155.90;;;149.70;;
11431;SDS011;5772;50.940;6.782;2022-08-20T01:57:12;185.17;;;177.83;;
11431;SDS011;5772;50.940;6.782;2022-08-20T01:59:39;135.13;;;129.53;;
11431;SDS011;5772;50.940;6.782;2022-08-20T02:02:06;168.07;;;161.43;;
11431;SDS011;5772;50.940;6.782;2022-08-20T02:04:33;134.73;;;129.13;;
11431;SDS011;5772;50.940;6.782;2022-08-20T02:06:59;177.57;;;170.57;;
11431;SDS011;5772;50.940;6.782;2022-08-20T02:09:26;159.27;;;152.97;;
11431;SDS011;5772;50.940;6.782;2022-08-20T02:11:52;146.03;;;139.90;;
11431;SDS011;5772;50.940;6.782;2022-08-20T02:14:18;153.73;;;147.20;;
11431;SDS011;5772;50.940;6.782;2022-08-20T02:16:44;181.87;;;174.57;;
11431;SDS011;5772;50.940;6.782;2022-08-20T02:19:12;190.83;;;183.30;;
11431;SDS011;5772;50.940;6.782;2022-08-20T02:21:40;163.13;;;156.37;;
11431;SDS011;5772;50.940;6.782;2022-08-20T02:24:09;230.40;;;221.30;;
11431;SDS011;5772;50.940;6.782;2022-08-20T02:26:34;209.80;;;201.73;;
11431;SDS011;5772;50.940;6.782;2022-08-20T02:28:59;229.90;;;220.83;;
11431;SDS011;5772;50.940;6.782;2022-08-20T02:31:25;224.07;;;215.37;;
11431;SDS011;5772;50.940;6.782;2022-08-20T02:33:50;220.07;;;211.50;;
11431;SDS011;5772;50.940;6.782;2022-08-20T02:36:17;213.83;;;205.63;;
11431;SDS011;5772;50.940;6.782;2022-08-20T02:38:43;220.20;;;211.70;;
11431;SDS011;5772;50.940;6.782;2022-08-20T02:41:09;199.90;;;191.90;;
11431;SDS011;5772;50.940;6.782;2022-08-20T02:43:35;233.27;;;224.47;;
11431;SDS011;5772;50.940;6.782;2022-08-20T02:46:00;221.83;;;213.27;;
11431;SDS011;5772;50.940;6.782;2022-08-20T02:48:26;238.07;;;228.77;;
11431;SDS011;5772;50.940;6.782;2022-08-20T02:50:53;226.80;;;218.10;;
11431;SDS011;5772;50.940;6.782;2022-08-20T02:53:20;203.63;;;195.67;;
11431;SDS011;5772;50.940;6.782;2022-08-20T02:55:46;121.07;;;115.87;;
11431;SDS011;5772;50.940;6.782;2022-08-20T02:58:11;161.30;;;154.90;;
11431;SDS011;5772;50.940;6.782;2022-08-20T03:00:37;154.80;;;148.60;;
11431;SDS011;5772;50.940;6.782;2022-08-20T03:03:03;174.70;;;167.77;;
11431;SDS011;5772;50.940;6.782;2022-08-20T03:05:29;140.40;;;134.50;;
11431;SDS011;5772;50.940;6.782;2022-08-20T03:07:54;136.37;;;130.87;;
11431;SDS011;5772;50.940;6.782;2022-08-20T03:10:23;159.30;;;152.90;;
11431;SDS011;5772;50.940;6.782;2022-08-20T03:12:53;160.33;;;153.77;;
11431;SDS011;5772;50.940;6.782;2022-08-20T03:15:19;153.13;;;147.00;;
11431;SDS011;5772;50.940;6.782;2022-08-20T03:17:44;141.23;;;135.47;;
11431;SDS011;5772;50.940;6.782;2022-08-20T03:20:10;160.70;;;154.20;;
11431;SDS011;5772;50.940;6.782;2022-08-20T03:22:36;166.77;;;160.00;;
11431;SDS011;5772;50.940;6.782;2022-08-20T03:25:01;171.53;;;164.73;;
11431;SDS011;5772;50.940;6.782;2022-08-20T03:27:29;105.77;;;101.33;;
11431;SDS011;5772;50.940;6.782;2022-08-20T03:29:54;95.93;;;91.70;;
11431;SDS011;5772;50.940;6.782;2022-08-20T03:32:19;66.20;;;62.87;;
11431;SDS011;5772;50.940;6.782;2022-08-20T03:34:45;112.43;;;107.70;;
11431;SDS011;5772;50.940;6.782;2022-08-20T03:37:10;81.33;;;77.87;;
11431;SDS011;5772;50.940;6.782;2022-08-20T03:39:36;180.07;;;173.03;;
11431;SDS011;5772;50.940;6.782;2022-08-20T03:42:02;165.67;;;159.07;;
11431;SDS011;5772;50.940;6.782;2022-08-20T03:44:29;135.97;;;130.37;;
11431;SDS011;5772;50.940;6.782;2022-08-20T03:46:54;190.50;;;182.93;;
11431;SDS011;5772;50.940;6.782;2022-08-20T03:49:20;157.90;;;151.50;;
11431;SDS011;5772;50.940;6.782;2022-08-20T03:51:45;174.77;;;167.77;;
11431;SDS011;5772;50.940;6.782;2022-08-20T03:54:10;783.87;;;445.60;;
11431;SDS011;5772;50.940;6.782;2022-08-20T03:56:36;1999.90;;;999.90;;
11431;SDS011;5772;50.940;6.782;2022-08-20T03:59:01;1999.90;;;999.90;;
11431;SDS011;5772;50.940;6.782;2022-08-20T04:01:28;1999.90;;;999.90;;
11431;SDS011;5772;50.940;6.782;2022-08-20T04:03:53;1999.90;;;999.90;;
11431;SDS011;5772;50.940;6.782;2022-08-20T04:06:19;1999.90;;;999.90;;
11431;SDS011;5772;50.940;6.782;2022-08-20T04:08:44;1999.90;;;999.90;;
11431;SDS011;5772;50.940;6.782;2022-08-20T04:11:09;1999.90;;;999.90;;
11431;SDS011;5772;50.940;6.782;2022-08-20T04:13:35;1999.90;;;999.90;;
11431;SDS011;5772;50.940;6.782;2022-08-20T04:16:00;1999.90;;;999.90;;
11431;SDS011;5772;50.940;6.782;2022-08-20T04:18:28;1999.90;;;999.90;;
11431;SDS011;5772;50.940;6.782;2022-08-20T04:20:53;1999.90;;;999.90;;
11431;SDS011;5772;50.940;6.782;2022-08-20T04:23:19;1999.90;;;999.90;;
11431;SDS011;5772;50.940;6.782;2022-08-20T04:25:44;1999.90;;;999.90;;
11431;SDS011;5772;50.940;6.782;2022-08-20T04:28:11;1999.90;;;999.90;;
11431;SDS011;5772;50.940;6.782;2022-08-20T04:30:38;1999.90;;;999.90;;
11431;SDS011;5772;50.940;6.782;2022-08-20T04:33:04;1999.90;;;999.90;;
11431;SDS011;5772;50.940;6.782;2022-08-20T04:35:31;1999.90;;;999.90;;
11431;SDS011;5772;50.940;6.782;2022-08-20T04:37:57;1999.90;;;999.90;;
11431;SDS011;5772;50.940;6.782;2022-08-20T04:40:23;1999.90;;;999.90;;
11431;SDS011;5772;50.940;6.782;2022-08-20T04:42:49;1999.90;;;999.90;;
11431;SDS011;5772;50.940;6.782;2022-08-20T04:45:14;1999.90;;;999.90;;
11431;SDS011;5772;50.940;6.782;2022-08-20T04:47:39;1999.90;;;999.90;;
11431;SDS011;5772;50.940;6.782;2022-08-20T04:50:06;1999.90;;;999.90;;
11431;SDS011;5772;50.940;6.782;2022-08-20T04:52:34;1999.90;;;999.90;;
11431;SDS011;5772;50.940;6.782;2022-08-20T04:54:59;1999.90;;;999.90;;
11431;SDS011;5772;50.940;6.782;2022-08-20T04:57:25;1999.90;;;999.90;;
11431;SDS011;5772;50.940;6.782;2022-08-20T04:59:50;1999.90;;;999.90;;
11431;SDS011;5772;50.940;6.782;2022-08-20T05:02:16;1999.90;;;999.90;;
11431;SDS011;5772;50.940;6.782;2022-08-20T05:04:41;1999.90;;;999.90;;
11431;SDS011;5772;50.940;6.782;2022-08-20T05:07:06;1999.90;;;999.90;;
11431;SDS011;5772;50.940;6.782;2022-08-20T05:09:33;1999.90;;;999.90;;
11431;SDS011;5772;50.940;6.782;2022-08-20T05:11:58;1999.90;;;999.90;;
11431;SDS011;5772;50.940;6.782;2022-08-20T05:14:24;1999.90;;;999.90;;
11431;SDS011;5772;50.940;6.782;2022-08-20T05:16:49;1999.90;;;999.90;;
11431;SDS011;5772;50.940;6.782;2022-08-20T05:19:15;1999.90;;;999.90;;
11431;SDS011;5772;50.940;6.782;2022-08-20T05:21:40;1999.90;;;999.90;;
11431;SDS011;5772;50.940;6.782;2022-08-20T05:24:05;1999.90;;;999.90;;
11431;SDS011;5772;50.940;6.782;2022-08-20T05:26:32;1999.90;;;999.90;;
11431;SDS011;5772;50.940;6.782;2022-08-20T05:28:58;1999.90;;;999.90;;
11431;SDS011;5772;50.940;6.782;2022-08-20T05:31:24;1999.90;;;999.90;;
11431;SDS011;5772;50.940;6.782;2022-08-20T05:33:49;1999.90;;;999.90;;
11431;SDS011;5772;50.940;6.782;2022-08-20T05:36:15;1999.90;;;999.90;;
11431;SDS011;5772;50.940;6.782;2022-08-20T05:38:40;1999.90;;;999.90;;
11431;SDS011;5772;50.940;6.782;2022-08-20T05:41:05;1999.90;;;999.90;;
11431;SDS011;5772;50.940;6.782;2022-08-20T05:43:32;1999.90;;;999.90;;
11431;SDS011;5772;50.940;6.782;2022-08-20T05:45:58;1999.90;;;999.90;;
11431;SDS011;5772;50.940;6.782;2022-08-20T05:48:24;1999.90;;;999.90;;
11431;SDS011;5772;50.940;6.782;2022-08-20T05:50:50;1999.90;;;999.90;;
11431;SDS011;5772;50.940;6.782;2022-08-20T05:53:17;1999.90;;;999.90;;
11431;SDS011;5772;50.940;6.782;2022-08-20T05:55:43;1999.90;;;999.90;;
11431;SDS011;5772;50.940;6.782;2022-08-20T05:58:16;1999.90;;;999.90;;
11431;SDS011;5772;50.940;6.782;2022-08-20T06:00:45;1999.90;;;999.90;;
11431;SDS011;5772;50.940;6.782;2022-08-20T06:03:10;1999.90;;;999.90;;
11431;SDS011;5772;50.940;6.782;2022-08-20T06:05:36;1999.90;;;999.90;;
11431;SDS011;5772;50.940;6.782;2022-08-20T06:08:02;1999.90;;;999.90;;
11431;SDS011;5772;50.940;6.782;2022-08-20T06:10:28;1999.90;;;999.90;;
11431;SDS011;5772;50.940;6.782;2022-08-20T06:12:54;1999.90;;;999.90;;
11431;SDS011;5772;50.940;6.782;2022-08-20T06:15:19;1999.90;;;999.90;;
11431;SDS011;5772;50.940;6.782;2022-08-20T06:17:46;1999.90;;;999.90;;
11431;SDS011;5772;50.940;6.782;2022-08-20T06:20:11;1999.90;;;999.90;;
11431;SDS011;5772;50.940;6.782;2022-08-20T06:22:37;1999.90;;;999.90;;
11431;SDS011;5772;50.940;6.782;2022-08-20T06:25:02;1999.90;;;999.90;;
11431;SDS011;5772;50.940;6.782;2022-08-20T06:27:29;1999.90;;;999.90;;
11431;SDS011;5772;50.940;6.782;2022-08-20T06:29:54;1999.90;;;999.90;;
11431;SDS011;5772;50.940;6.782;2022-08-20T06:32:20;1999.90;;;999.90;;
11431;SDS011;5772;50.940;6.782;2022-08-20T06:34:48;1999.90;;;999.90;;
11431;SDS011;5772;50.940;6.782;2022-08-20T06:37:13;1999.90;;;999.90;;
11431;SDS011;5772;50.940;6.782;2022-08-20T06:39:39;1999.90;;;999.90;;
11431;SDS011;5772;50.940;6.782;2022-08-20T06:42:04;1999.90;;;999.90;;
11431;SDS011;5772;50.940;6.782;2022-08-20T06:44:30;1999.90;;;999.90;;
11431;SDS011;5772;50.940;6.782;2022-08-20T06:46:58;1999.90;;;999.90;;
11431;SDS011;5772;50.940;6.782;2022-08-20T06:49:24;1999.90;;;999.90;;
11431;SDS011;5772;50.940;6.782;2022-08-20T06:51:51;1999.90;;;999.90;;
11431;SDS011;5772;50.940;6.782;2022-08-20T06:54:16;1999.90;;;999.90;;
11431;SDS011;5772;50.940;6.782;2022-08-20T06:56:42;1999.90;;;999.90;;
11431;SDS011;5772;50.940;6.782;2022-08-20T06:59:07;1999.90;;;999.90;;
11431;SDS011;5772;50.940;6.782;2022-08-20T07:01:32;1999.90;;;999.90;;
11431;SDS011;5772;50.940;6.782;2022-08-20T07:03:58;1999.90;;;999.90;;
11431;SDS011;5772;50.940;6.782;2022-08-20T07:06:23;1999.90;;;999.90;;
11431;SDS011;5772;50.940;6.782;2022-08-20T07:08:50;1999.90;;;999.90;;
11431;SDS011;5772;50.940;6.782;2022-08-20T07:11:15;1999.90;;;999.90;;
11431;SDS011;5772;50.940;6.782;2022-08-20T07:13:41;1999.90;;;999.90;;
11431;SDS011;5772;50.940;6.782;2022-08-20T07:16:06;112.57;;;107.40;;
11431;SDS011;5772;50.940;6.782;2022-08-20T07:18:32;76.33;;;72.63;;
11431;SDS011;5772;50.940;6.782;2022-08-20T07:20:57;68.70;;;65.10;;
11431;SDS011;5772;50.940;6.782;2022-08-20T07:23:23;60.37;;;57.10;;
11431;SDS011;5772;50.940;6.782;2022-08-20T07:25:50;77.03;;;73.13;;
11431;SDS011;5772;50.940;6.782;2022-08-20T07:28:17;88.47;;;84.47;;
11431;SDS011;5772;50.940;6.782;2022-08-20T07:30:42;69.20;;;65.67;;
11431;SDS011;5772;50.940;6.782;2022-08-20T07:33:08;110.57;;;105.72;;
11431;SDS011;5772;50.940;6.782;2022-08-20T07:35:34;115.28;;;110.15;;
11431;SDS011;5772;50.940;6.782;2022-08-20T07:37:59;80.88;;;77.18;;
11431;SDS011;5772;50.940;6.782;2022-08-20T07:40:26;36.15;;;34.15;;
11431;SDS011;5772;50.940;6.782;2022-08-20T07:42:54;51.28;;;48.38;;
11431;SDS011;5772;50.940;6.782;2022-08-20T07:45:20;54.10;;;51.38;;
11431;SDS011;5772;50.940;6.782;2022-08-20T07:47:47;37.03;;;35.05;;
11431;SDS011;5772;50.940;6.782;2022-08-20T07:50:14;31.60;;;29.80;;
11431;SDS011;5772;50.940;6.782;2022-08-20T07:52:40;35.70;;;33.70;;
11431;SDS011;5772;50.940;6.782;2022-08-20T07:55:07;30.85;;;29.15;;
11431;SDS011;5772;50.940;6.782;2022-08-20T07:57:34;31.20;;;29.40;;
11431;SDS011;5772;50.940;6.782;2022-08-20T08:00:01;29.73;;;27.92;;
11431;SDS011;5772;50.940;6.782;2022-08-20T08:02:28;27.33;;;25.73;;
11431;SDS011;5772;50.940;6.782;2022-08-20T08:04:53;24.88;;;23.52;;
11431;SDS011;5772;50.940;6.782;2022-08-20T08:07:19;30.25;;;28.65;;
11431;SDS011;5772;50.940;6.782;2022-08-20T08:09:44;30.05;;;28.45;;
11431;SDS011;5772;50.940;6.782;2022-08-20T08:12:10;46.30;;;44.17;;
11431;SDS011;5772;50.940;6.782;2022-08-20T08:14:36;49.08;;;46.38;;
11431;SDS011;5772;50.940;6.782;2022-08-20T08:17:04;52.25;;;49.75;;
11431;SDS011;5772;50.940;6.782;2022-08-20T08:19:30;54.63;;;52.05;;
11431;SDS011;5772;50.940;6.782;2022-08-20T08:21:59;55.22;;;52.65;;
11431;SDS011;5772;50.940;6.782;2022-08-20T08:24:24;67.32;;;64.13;;
11431;SDS011;5772;50.940;6.782;2022-08-20T08:26:49;64.20;;;61.17;;
11431;SDS011;5772;50.940;6.782;2022-08-20T08:29:15;67.85;;;64.80;;
11431;SDS011;5772;50.940;6.782;2022-08-20T08:31:40;70.97;;;67.38;;
11431;SDS011;5772;50.940;6.782;2022-08-20T08:34:07;79.43;;;75.93;;
11431;SDS011;5772;50.940;6.782;2022-08-20T08:36:32;82.63;;;79.13;;
11431;SDS011;5772;50.940;6.782;2022-08-20T08:38:58;77.53;;;73.85;;
11431;SDS011;5772;50.940;6.782;2022-08-20T08:41:25;70.47;;;67.25;;
11431;SDS011;5772;50.940;6.782;2022-08-20T08:43:53;71.70;;;68.10;;
11431;SDS011;5772;50.940;6.782;2022-08-20T08:46:25;70.80;;;67.38;;
11431;SDS011;5772;50.940;6.782;2022-08-20T08:48:51;65.70;;;61.92;;
11431;SDS011;5772;50.940;6.782;2022-08-20T08:51:23;38.92;;;36.92;;
11431;SDS011;5772;50.940;6.782;2022-08-20T08:53:53;43.90;;;41.40;;
11431;SDS011;5772;50.940;6.782;2022-08-20T08:56:19;46.80;;;44.08;;
11431;SDS011;5772;50.940;6.782;2022-08-20T08:58:48;37.85;;;35.83;;
11431;SDS011;5772;50.940;6.782;2022-08-20T09:01:17;60.13;;;56.83;;
11431;SDS011;5772;50.940;6.782;2022-08-20T09:03:44;62.38;;;59.45;;
11431;SDS011;5772;50.940;6.782;2022-08-20T09:06:11;73.07;;;69.55;;
11431;SDS011;5772;50.940;6.782;2022-08-20T09:08:40;74.47;;;70.88;;
11431;SDS011;5772;50.940;6.782;2022-08-20T09:11:08;69.25;;;65.75;;
11431;SDS011;5772;50.940;6.782;2022-08-20T09:13:34;73.53;;;69.93;;
11431;SDS011;5772;50.940;6.782;2022-08-20T09:15:59;54.25;;;51.08;;
11431;SDS011;5772;50.940;6.782;2022-08-20T09:18:25;64.95;;;61.78;;
11431;SDS011;5772;50.940;6.782;2022-08-20T09:20:50;44.58;;;41.55;;
11431;SDS011;5772;50.940;6.782;2022-08-20T09:23:16;39.47;;;37.25;;
11431;SDS011;5772;50.940;6.782;2022-08-20T09:25:43;38.45;;;36.40;;
11431;SDS011;5772;50.940;6.782;2022-08-20T09:28:09;39.28;;;36.67;;
11431;SDS011;5772;50.940;6.782;2022-08-20T09:30:34;37.20;;;34.95;;
11431;SDS011;5772;50.940;6.782;2022-08-20T09:33:00;36.97;;;34.60;;
11431;SDS011;5772;50.940;6.782;2022-08-20T09:35:26;38.20;;;35.80;;
11431;SDS011;5772;50.940;6.782;2022-08-20T09:37:51;42.75;;;39.60;;
11431;SDS011;5772;50.940;6.782;2022-08-20T09:40:17;39.92;;;37.38;;
11431;SDS011;5772;50.940;6.782;2022-08-20T09:42:44;49.47;;;46.70;;
11431;SDS011;5772;50.940;6.782;2022-08-20T09:45:10;63.15;;;60.08;;
11431;SDS011;5772;50.940;6.782;2022-08-20T09:47:37;53.03;;;50.42;;
11431;SDS011;5772;50.940;6.782;2022-08-20T09:50:03;65.45;;;62.03;;
11431;SDS011;5772;50.940;6.782;2022-08-20T09:52:29;61.78;;;58.88;;
11431;SDS011;5772;50.940;6.782;2022-08-20T09:54:56;59.08;;;56.20;;
11431;SDS011;5772;50.940;6.782;2022-08-20T09:57:23;61.05;;;57.92;;
11431;SDS011;5772;50.940;6.782;2022-08-20T09:59:52;74.93;;;71.18;;
11431;SDS011;5772;50.940;6.782;2022-08-20T10:02:19;59.25;;;56.38;;
11431;SDS011;5772;50.940;6.782;2022-08-20T10:04:44;61.38;;;58.13;;
11431;SDS011;5772;50.940;6.782;2022-08-20T10:07:10;60.78;;;57.55;;
11431;SDS011;5772;50.940;6.782;2022-08-20T10:09:35;62.35;;;59.35;;
11431;SDS011;5772;50.940;6.782;2022-08-20T10:12:01;51.97;;;49.10;;
11431;SDS011;5772;50.940;6.782;2022-08-20T10:14:27;55.53;;;52.67;;
11431;SDS011;5772;50.940;6.782;2022-08-20T10:16:55;58.05;;;55.20;;
11431;SDS011;5772;50.940;6.782;2022-08-20T10:19:20;53.17;;;50.42;;
11431;SDS011;5772;50.940;6.782;2022-08-20T10:21:46;49.13;;;46.75;;
11431;SDS011;5772;50.940;6.782;2022-08-20T10:24:14;48.33;;;45.72;;
11431;SDS011;5772;50.940;6.782;2022-08-20T10:26:39;54.50;;;51.55;;
11431;SDS011;5772;50.940;6.782;2022-08-20T10:29:04;55.03;;;52.47;;
11431;SDS011;5772;50.940;6.782;2022-08-20T10:31:30;55.50;;;52.90;;
11431;SDS011;5772;50.940;6.782;2022-08-20T10:33:57;55.78;;;53.05;;
11431;SDS011;5772;50.940;6.782;2022-08-20T10:36:22;59.78;;;57.08;;
11431;SDS011;5772;50.940;6.782;2022-08-20T10:38:47;57.97;;;55.17;;
11431;SDS011;5772;50.940;6.782;2022-08-20T10:41:13;58.88;;;55.75;;
11431;SDS011;5772;50.940;6.782;2022-08-20T10:43:38;55.90;;;53.13;;
11431;SDS011;5772;50.940;6.782;2022-08-20T10:46:04;56.22;;;53.53;;
11431;SDS011;5772;50.940;6.782;2022-08-20T10:48:30;55.33;;;52.42;;
11431;SDS011;5772;50.940;6.782;2022-08-20T10:50:56;56.95;;;53.67;;
11431;SDS011;5772;50.940;6.782;2022-08-20T10:53:22;57.15;;;54.25;;
11431;SDS011;5772;50.940;6.782;2022-08-20T10:55:47;62.05;;;58.75;;
11431;SDS011;5772;50.940;6.782;2022-08-20T10:58:13;58.33;;;55.10;;
11431;SDS011;5772;50.940;6.782;2022-08-20T11:00:38;55.17;;;52.17;;
11431;SDS011;5772;50.940;6.782;2022-08-20T11:03:04;59.45;;;56.55;;
11431;SDS011;5772;50.940;6.782;2022-08-20T11:05:30;63.35;;;60.35;;
11431;SDS011;5772;50.940;6.782;2022-08-20T11:07:57;63.20;;;60.20;;
11431;SDS011;5772;50.940;6.782;2022-08-20T11:10:23;61.95;;;58.58;;
11431;SDS011;5772;50.940;6.782;2022-08-20T11:12:49;60.92;;;58.17;;
11431;SDS011;5772;50.940;6.782;2022-08-20T11:15:14;61.80;;;59.05;;
11431;SDS011;5772;50.940;6.782;2022-08-20T11:17:40;76.57;;;73.35;;
11431;SDS011;5772;50.940;6.782;2022-08-20T11:20:07;55.85;;;53.30;;
11431;SDS011;5772;50.940;6.782;2022-08-20T11:22:34;26.58;;;24.77;;
11431;SDS011;5772;50.940;6.782;2022-08-20T11:25:01;34.88;;;33.03;;
11431;SDS011;5772;50.940;6.782;2022-08-20T11:27:28;36.80;;;34.75;;
11431;SDS011;5772;50.940;6.782;2022-08-20T11:29:55;42.17;;;40.05;;
11431;SDS011;5772;50.940;6.782;2022-08-20T11:32:21;32.40;;;30.48;;
11431;SDS011;5772;50.940;6.782;2022-08-20T11:34:47;30.98;;;29.25;;
11431;SDS011;5772;50.940;6.782;2022-08-20T11:37:13;33.45;;;31.05;;
11431;SDS011;5772;50.940;6.782;2022-08-20T11:39:40;35.63;;;33.47;;
11431;SDS011;5772;50.940;6.782;2022-08-20T11:42:07;33.47;;;31.33;;
11431;SDS011;5772;50.940;6.782;2022-08-20T11:44:32;29.38;;;27.90;;
11431;SDS011;5772;50.940;6.782;2022-08-20T11:46:58;28.75;;;27.05;;
11431;SDS011;5772;50.940;6.782;2022-08-20T11:49:24;28.52;;;26.83;;
11431;SDS011;5772;50.940;6.782;2022-08-20T11:51:49;29.95;;;28.25;;
11431;SDS011;5772;50.940;6.782;2022-08-20T11:54:15;33.10;;;31.42;;
11431;SDS011;5772;50.940;6.782;2022-08-20T11:56:40;37.75;;;35.40;;
11431;SDS011;5772;50.940;6.782;2022-08-20T11:59:07;35.50;;;33.67;;
11431;SDS011;5772;50.940;6.782;2022-08-20T12:01:32;39.83;;;37.75;;
11431;SDS011;5772;50.940;6.782;2022-08-20T12:03:59;39.35;;;37.08;;
11431;SDS011;5772;50.940;6.782;2022-08-20T12:06:25;35.58;;;33.65;;
11431;SDS011;5772;50.940;6.782;2022-08-20T12:08:50;34.03;;;32.08;;
11431;SDS011;5772;50.940;6.782;2022-08-20T12:11:15;28.52;;;26.98;;
11431;SDS011;5772;50.940;6.782;2022-08-20T12:13:41;23.92;;;22.38;;
11431;SDS011;5772;50.940;6.782;2022-08-20T12:16:08;24.90;;;23.25;;
11431;SDS011;5772;50.940;6.782;2022-08-20T12:18:33;23.27;;;21.88;;
11431;SDS011;5772;50.940;6.782;2022-08-20T12:20:59;25.25;;;23.77;;
11431;SDS011;5772;50.940;6.782;2022-08-20T12:23:24;22.60;;;21.30;;
11431;SDS011;5772;50.940;6.782;2022-08-20T12:25:50;23.25;;;21.92;;
11431;SDS011;5772;50.940;6.782;2022-08-20T12:28:15;19.42;;;18.17;;
11431;SDS011;5772;50.940;6.782;2022-08-20T12:30:41;18.23;;;16.88;;
11431;SDS011;5772;50.940;6.782;2022-08-20T12:33:08;19.92;;;18.55;;
11431;SDS011;5772;50.940;6.782;2022-08-20T12:35:33;19.20;;;18.00;;
11431;SDS011;5772;50.940;6.782;2022-08-20T12:38:00;20.70;;;19.50;;
11431;SDS011;5772;50.940;6.782;2022-08-20T12:40:26;19.85;;;18.58;;
11431;SDS011;5772;50.940;6.782;2022-08-20T12:42:52;21.05;;;19.60;;
11431;SDS011;5772;50.940;6.782;2022-08-20T12:45:18;23.35;;;21.83;;
11431;SDS011;5772;50.940;6.782;2022-08-20T12:47:44;23.33;;;21.88;;
11431;SDS011;5772;50.940;6.782;2022-08-20T12:50:14;22.45;;;21.17;;
11431;SDS011;5772;50.940;6.782;2022-08-20T12:52:41;19.30;;;18.45;;
11431;SDS011;5772;50.940;6.782;2022-08-20T12:55:07;20.50;;;19.33;;
11431;SDS011;5772;50.940;6.782;2022-08-20T12:57:35;19.48;;;18.35;;
11431;SDS011;5772;50.940;6.782;2022-08-20T13:00:05;20.98;;;19.85;;
11431;SDS011;5772;50.940;6.782;2022-08-20T13:02:32;22.05;;;20.95;;
11431;SDS011;5772;50.940;6.782;2022-08-20T13:04:58;23.15;;;21.73;;
11431;SDS011;5772;50.940;6.782;2022-08-20T13:07:25;22.77;;;21.48;;
11431;SDS011;5772;50.940;6.782;2022-08-20T13:09:50;22.63;;;21.45;;
11431;SDS011;5772;50.940;6.782;2022-08-20T13:12:16;22.58;;;21.23;;
11431;SDS011;5772;50.940;6.782;2022-08-20T13:14:41;23.42;;;22.30;;
11431;SDS011;5772;50.940;6.782;2022-08-20T13:17:10;19.40;;;18.00;;
11431;SDS011;5772;50.940;6.782;2022-08-20T13:19:36;19.05;;;17.58;;
11431;SDS011;5772;50.940;6.782;2022-08-20T13:22:02;19.50;;;18.50;;
11431;SDS011;5772;50.940;6.782;2022-08-20T13:24:29;19.63;;;18.73;;
11431;SDS011;5772;50.940;6.782;2022-08-20T13:27:02;24.15;;;22.75;;
11431;SDS011;5772;50.940;6.782;2022-08-20T13:29:28;21.20;;;20.20;;
11431;SDS011;5772;50.940;6.782;2022-08-20T13:31:53;16.98;;;16.08;;
11431;SDS011;5772;50.940;6.782;2022-08-20T13:34:19;19.60;;;18.25;;
11431;SDS011;5772;50.940;6.782;2022-08-20T13:36:44;19.23;;;18.13;;
11431;SDS011;5772;50.940;6.782;2022-08-20T13:39:10;20.27;;;19.08;;
11431;SDS011;5772;50.940;6.782;2022-08-20T13:41:36;20.73;;;19.48;;
11431;SDS011;5772;50.940;6.782;2022-08-20T13:44:02;20.30;;;18.92;;
11431;SDS011;5772;50.940;6.782;2022-08-20T13:46:28;17.70;;;16.70;;
11431;SDS011;5772;50.940;6.782;2022-08-20T13:48:53;18.52;;;17.73;;
11431;SDS011;5772;50.940;6.782;2022-08-20T13:51:18;19.25;;;18.33;;
11431;SDS011;5772;50.940;6.782;2022-08-20T13:53:44;17.67;;;16.75;;
11431;SDS011;5772;50.940;6.782;2022-08-20T13:56:09;13.40;;;12.60;;
11431;SDS011;5772;50.940;6.782;2022-08-20T13:58:36;16.92;;;15.93;;
11431;SDS011;5772;50.940;6.782;2022-08-20T14:01:02;18.23;;;17.27;;
11431;SDS011;5772;50.940;6.782;2022-08-20T14:03:27;18.05;;;17.25;;
11431;SDS011;5772;50.940;6.782;2022-08-20T14:05:52;18.08;;;16.88;;
11431;SDS011;5772;50.940;6.782;2022-08-20T14:08:19;16.85;;;15.77;;
11431;SDS011;5772;50.940;6.782;2022-08-20T14:10:46;18.17;;;17.15;;
11431;SDS011;5772;50.940;6.782;2022-08-20T14:13:12;14.07;;;13.38;;